Time;durP1;ratioP1;P1;durP2;ratioP2;P2;SDS_P1;SDS_P2;PMS_P1;PMS_P2;Temp;Humidity;BMP_temperature;BMP_pressure;BME280_temperature;BME280_humidity;BME280_pressure;Samples;Min_cycle;Max_cycle;Signal;HPM_P1;HPM_P2
2023/08/16 00:01:23;;;;;;;12.85;5.53;;;21.20;99.90;;;21.80;70.68;100866.41;5051251;28;20477;-83
2023/08/16 00:03:50;;;;;;;11.52;5.53;;;21.30;99.90;;;21.81;70.44;100860.72;5046880;28;20040;-84
2023/08/16 00:06:18;;;;;;;13.70;5.63;;;21.30;99.90;;;21.76;70.24;100860.69;5049613;28;20045;-83
2023/08/16 00:08:45;;;;;;;10.23;5.03;;;21.20;99.90;;;21.75;70.68;100863.69;5052734;28;20120;-84
2023/08/16 00:11:12;;;;;;;9.57;4.53;;;21.20;99.90;;;21.73;70.95;100860.47;5045647;28;20041;-84
2023/08/16 00:13:41;;;;;;;13.77;4.90;;;21.20;99.90;;;21.70;70.80;100861.81;5058178;28;20520;-83
2023/08/16 00:16:08;;;;;;;8.07;4.70;;;21.10;99.90;;;21.69;71.06;100856.66;5051388;28;20462;-83
2023/08/16 00:18:37;;;;;;;9.30;5.07;;;21.10;99.90;;;21.65;70.66;100858.31;5047870;28;20095;-84
2023/08/16 00:21:04;;;;;;;8.85;4.60;;;21.00;99.90;;;21.63;70.86;100857.78;5060638;28;20033;-84
2023/08/16 00:23:31;;;;;;;13.10;5.65;;;21.10;99.90;;;21.55;70.38;100862.66;5053182;28;20041;-84
2023/08/16 00:25:58;;;;;;;11.13;6.00;;;21.00;99.90;;;21.51;70.07;100848.00;5052779;28;20394;-84
2023/08/16 00:28:26;;;;;;;9.65;5.32;;;21.00;99.90;;;21.49;70.21;100852.09;5036404;28;20131;-86
2023/08/16 00:30:53;;;;;;;10.98;5.78;;;21.00;99.90;;;21.48;70.08;100851.28;5058792;28;20041;-84
2023/08/16 00:33:21;;;;;;;14.85;6.05;;;21.00;99.90;;;21.50;69.80;100846.41;5041830;28;20041;-84
2023/08/16 00:35:52;;;;;;;12.07;5.90;;;21.00;99.90;;;21.47;69.95;100848.84;5047948;28;20032;-83
2023/08/16 00:38:19;;;;;;;11.68;6.10;;;21.00;99.90;;;21.43;69.96;100850.50;5034932;28;20077;-84
2023/08/16 00:40:49;;;;;;;7.50;4.20;;;21.00;99.90;;;21.47;70.61;100856.97;5052341;28;20041;-84
2023/08/16 00:43:16;;;;;;;8.68;4.50;;;21.00;99.90;;;21.48;70.59;100859.44;5052702;28;20375;-84
2023/08/16 00:45:44;;;;;;;9.70;4.70;;;20.90;99.90;;;21.47;70.51;100855.09;5025135;28;20059;-84
2023/08/16 00:48:12;;;;;;;10.75;5.25;;;20.90;99.90;;;21.44;69.97;100850.22;5059344;28;20187;-85
2023/08/16 00:50:40;;;;;;;8.07;5.03;;;20.90;99.90;;;21.43;70.05;100851.31;5050981;28;20135;-84
2023/08/16 00:53:10;;;;;;;10.40;5.95;;;20.90;99.90;;;21.37;70.18;100852.38;5034341;28;20041;-84
2023/08/16 00:55:37;;;;;;;9.63;5.00;;;20.90;99.90;;;21.40;70.01;100840.19;5037138;28;20462;-84
2023/08/16 00:58:05;;;;;;;11.15;5.97;;;20.90;99.90;;;21.38;69.85;100837.75;5049107;28;20045;-84
2023/08/16 01:00:33;;;;;;;12.90;6.00;;;20.90;99.90;;;21.39;69.82;100831.22;5033864;28;20076;-83
2023/08/16 01:03:00;;;;;;;10.15;5.43;;;20.90;99.90;;;21.37;70.12;100838.81;5050879;28;20073;-84
2023/08/16 01:05:28;;;;;;;9.13;6.13;;;20.90;99.90;;;21.32;70.39;100834.19;5036479;28;20084;-84
2023/08/16 01:07:56;;;;;;;12.45;4.50;;;20.90;99.90;;;21.35;70.90;100832.84;5049413;28;20044;-84
2023/08/16 01:10:39;;;;;;;8.05;4.72;;;20.90;99.90;;;21.36;70.51;100839.91;5059311;28;20425;-84
2023/08/16 01:13:12;;;;;;;9.05;5.15;;;20.80;99.90;;;21.33;70.20;100837.75;5055497;28;20090;-85
2023/08/16 01:15:45;;;;;;;10.55;4.47;;;20.80;99.90;;;21.33;70.31;100835.03;5053879;28;20450;-84
2023/08/16 01:18:14;;;;;;;7.78;4.90;;;20.70;99.90;;;21.33;70.02;100835.84;5052289;28;20048;-84
2023/08/16 01:20:44;;;;;;;11.27;4.72;;;20.70;99.90;;;21.30;70.03;100838.25;5046946;28;20060;-84
2023/08/16 01:23:22;;;;;;;10.90;4.70;;;20.70;99.90;;;21.28;70.26;100835.84;5050671;28;20110;-84
2023/08/16 01:26:02;;;;;;;10.68;4.43;;;20.60;99.90;;;21.26;70.05;100834.47;5048097;28;20047;-84
2023/08/16 01:28:34;;;;;;;10.32;6.45;;;20.60;99.90;;;21.25;70.38;100824.69;5029710;28;20061;-84
2023/08/16 01:31:04;;;;;;;10.55;5.63;;;20.60;99.90;;;21.24;70.37;100831.22;5033075;28;20465;-84
2023/08/16 01:33:31;;;;;;;10.15;5.80;;;20.60;99.90;;;21.22;70.43;100830.66;5031924;28;20049;-84
2023/08/16 01:35:59;;;;;;;9.38;5.00;;;20.60;99.90;;;21.21;70.60;100835.28;5028308;28;20040;-84
2023/08/16 01:38:27;;;;;;;12.60;6.43;;;20.60;99.90;;;21.19;70.50;100836.66;5039093;28;20045;-84
2023/08/16 01:41:00;;;;;;;10.23;5.45;;;20.60;99.90;;;21.20;70.53;100832.84;5029661;28;20029;-84
2023/08/16 01:43:29;;;;;;;11.93;4.95;;;20.60;99.90;;;21.17;70.60;100845.03;5012811;28;20046;-84
2023/08/16 01:46:01;;;;;;;8.07;4.50;;;20.60;99.90;;;21.16;70.26;100842.63;5031973;28;20045;-84
2023/08/16 01:48:29;;;;;;;8.82;4.70;;;20.50;99.90;;;21.13;70.43;100838.56;5031602;28;20041;-84
2023/08/16 01:50:57;;;;;;;9.35;5.20;;;20.50;99.90;;;21.11;70.35;100851.56;5011597;28;20061;-84
2023/08/16 01:53:25;;;;;;;7.75;5.00;;;20.50;99.90;;;21.10;70.20;100844.53;5029063;28;20061;-83
2023/08/16 01:55:52;;;;;;;9.75;5.13;;;20.40;99.90;;;21.08;70.33;100847.53;5031088;28;20450;-84
2023/08/16 01:58:19;;;;;;;8.60;4.85;;;20.40;99.90;;;21.04;70.30;100846.44;5013795;28;20704;-84
2023/08/16 02:00:48;;;;;;;9.50;5.88;;;20.40;99.90;;;21.01;70.47;100844.25;5013033;28;20041;-84
2023/08/16 02:03:17;;;;;;;8.98;5.80;;;20.30;99.90;;;20.99;70.28;100837.47;5013768;28;20052;-84
2023/08/16 02:05:44;;;;;;;10.85;6.15;;;20.30;99.90;;;20.99;70.44;100837.47;5021258;28;20532;-84
2023/08/16 02:08:12;;;;;;;12.57;5.30;;;20.40;99.90;;;21.00;70.35;100839.09;5013390;28;20052;-84
2023/08/16 02:10:40;;;;;;;9.65;5.05;;;20.30;99.90;;;20.99;70.27;100838.28;5014286;28;20033;-84
2023/08/16 02:13:07;;;;;;;13.70;6.57;;;20.30;99.90;;;20.93;70.24;100836.66;5046588;28;20418;-84
2023/08/16 02:15:36;;;;;;;10.07;5.47;;;20.30;99.90;;;20.92;70.24;100837.72;5030640;28;20534;-83
2023/08/16 02:18:03;;;;;;;9.55;6.40;;;20.30;99.90;;;20.89;70.46;100838.28;5038620;28;20069;-84
2023/08/16 02:20:32;;;;;;;9.68;6.10;;;20.30;99.90;;;20.91;70.62;100838.00;5012984;28;20099;-83
2023/08/16 02:23:00;;;;;;;12.85;6.65;;;20.30;99.90;;;20.87;70.30;100839.63;5028389;28;20069;-84
2023/08/16 02:25:29;;;;;;;13.05;6.38;;;20.30;99.90;;;20.86;70.59;100833.41;5031588;28;20131;-84
2023/08/16 02:27:56;;;;;;;10.20;5.45;;;20.30;99.90;;;20.89;70.13;100838.28;5010690;28;20037;-84
2023/08/16 02:30:23;;;;;;;10.15;5.80;;;20.30;99.90;;;20.90;70.20;100831.78;5022598;28;20077;-84
2023/08/16 02:32:50;;;;;;;9.15;5.57;;;20.30;99.90;;;20.89;70.36;100832.88;5033773;28;20080;-83
2023/08/16 02:35:18;;;;;;;10.60;5.10;;;20.30;99.90;;;20.90;70.42;100834.50;5024745;28;20071;-84
2023/08/16 02:37:47;;;;;;;10.90;5.18;;;20.30;99.90;;;20.89;70.00;100832.88;5047413;28;20115;-84
2023/08/16 02:40:14;;;;;;;11.02;5.30;;;20.30;99.90;;;20.89;69.95;100835.59;5038712;28;20120;-83
2023/08/16 02:42:42;;;;;;;9.20;5.00;;;20.30;99.90;;;20.89;69.91;100834.78;5026869;28;20046;-84
2023/08/16 02:45:10;;;;;;;11.88;5.55;;;20.30;99.90;;;20.89;70.01;100842.91;5016041;28;20042;-84
2023/08/16 02:47:38;;;;;;;9.25;5.65;;;20.30;99.90;;;20.89;69.73;100840.19;5023937;28;20045;-84
2023/08/16 02:50:07;;;;;;;9.55;5.43;;;20.30;99.90;;;20.87;69.98;100845.06;5036787;28;20033;-84
2023/08/16 02:52:35;;;;;;;10.18;5.85;;;20.30;99.90;;;20.88;69.67;100846.69;5017306;28;20152;-84
2023/08/16 02:55:05;;;;;;;8.10;5.15;;;20.30;99.90;;;20.85;69.62;100841.81;5016598;28;20045;-84
2023/08/16 02:57:32;;;;;;;12.13;5.30;;;20.20;99.90;;;20.83;69.79;100842.06;5034272;28;20502;-84
2023/08/16 02:59:59;;;;;;;9.80;5.00;;;20.20;99.90;;;20.82;69.79;100837.72;5035528;28;20076;-84
2023/08/16 03:02:27;;;;;;;7.90;4.60;;;20.20;99.90;;;20.78;69.84;100842.06;5016486;28;20111;-84
2023/08/16 03:04:56;;;;;;;7.57;4.70;;;20.10;99.90;;;20.77;69.64;100840.44;5016592;28;20033;-84
2023/08/16 03:07:23;;;;;;;10.40;4.82;;;20.10;99.90;;;20.76;69.40;100842.34;5037146;28;20041;-84
2023/08/16 03:09:50;;;;;;;9.32;5.10;;;20.10;99.90;;;20.74;69.36;100840.97;5047083;28;20554;-85
2023/08/16 03:12:19;;;;;;;7.97;4.72;;;20.00;99.90;;;20.72;69.68;100843.97;5044088;28;20092;-84
2023/08/16 03:14:46;;;;;;;11.32;4.63;;;20.00;99.90;;;20.71;69.32;100844.25;5033960;28;20044;-84
2023/08/16 03:17:13;;;;;;;8.23;4.68;;;20.00;99.90;;;20.70;69.48;100840.72;5034700;28;20072;-84
2023/08/16 03:19:40;;;;;;;10.43;4.60;;;20.00;99.90;;;20.68;69.36;100848.28;5032277;28;20461;-83
2023/08/16 03:22:08;;;;;;;8.80;4.55;;;19.90;99.90;;;20.66;69.77;100839.63;5030277;28;20041;-84
2023/08/16 03:24:35;;;;;;;10.20;4.72;;;19.90;99.90;;;20.65;69.69;100845.31;5026824;28;20040;-84
2023/08/16 03:27:02;;;;;;;7.35;4.18;;;19.90;99.90;;;20.64;69.85;100843.66;5032458;28;20056;-84
2023/08/16 03:29:32;;;;;;;12.05;5.00;;;19.90;99.90;;;20.63;69.96;100845.56;5045210;28;20449;-84
2023/08/16 03:32:00;;;;;;;9.50;4.85;;;19.90;99.90;;;20.58;69.96;100840.94;5020946;28;20042;-83
2023/08/16 03:34:30;;;;;;;10.43;4.68;;;19.80;99.90;;;20.60;70.12;100848.03;5021346;28;20234;-84
2023/08/16 03:36:57;;;;;;;9.93;5.57;;;19.90;99.90;;;20.59;70.12;100849.91;5021122;28;20409;-84
2023/08/16 03:39:25;;;;;;;9.73;5.03;;;19.80;99.90;;;20.57;70.14;100850.19;5026145;28;20555;-84
2023/08/16 03:41:52;;;;;;;8.93;5.32;;;19.90;99.90;;;20.56;70.62;100845.84;5015268;28;20262;-84
2023/08/16 03:44:19;;;;;;;9.27;5.25;;;19.80;99.90;;;20.58;70.55;100856.41;5044314;28;20072;-84
2023/08/16 03:46:48;;;;;;;10.10;5.53;;;19.90;99.90;;;20.58;70.45;100853.69;5038435;28;20136;-84
2023/08/16 03:49:16;;;;;;;10.93;5.90;;;19.90;99.90;;;20.57;70.90;100847.47;5032258;28;20478;-84
2023/08/16 03:51:43;;;;;;;12.90;6.65;;;19.90;99.90;;;20.56;71.15;100848.56;5014550;28;20133;-84
2023/08/16 03:54:10;;;;;;;9.77;6.15;;;19.90;99.90;;;20.58;71.01;100849.09;5025148;28;20037;-84
2023/08/16 03:56:37;;;;;;;13.15;6.40;;;20.00;99.90;;;20.58;71.63;100849.09;5025394;28;20130;-84
2023/08/16 03:59:04;;;;;;;9.55;5.85;;;20.00;99.90;;;20.60;71.67;100850.75;5019814;28;20041;-84
2023/08/16 04:01:32;;;;;;;8.50;6.03;;;19.90;99.90;;;20.58;71.87;100853.69;5038140;28;20075;-84
2023/08/16 04:04:00;;;;;;;9.18;5.80;;;20.00;99.90;;;20.59;71.80;100855.31;5026707;28;20099;-84
2023/08/16 04:06:28;;;;;;;7.88;4.80;;;20.00;99.90;;;20.59;72.29;100855.31;5025445;28;20049;-84
2023/08/16 04:08:55;;;;;;;8.15;4.50;;;20.00;99.90;;;20.58;72.20;100865.34;5044772;28;20041;-84
2023/08/16 04:11:22;;;;;;;8.75;4.20;;;20.00;99.90;;;20.58;72.13;100853.69;5012600;28;20402;-84
2023/08/16 04:13:49;;;;;;;8.63;4.80;;;20.00;99.90;;;20.57;72.01;100855.59;5033567;28;20548;-84
2023/08/16 04:16:17;;;;;;;8.82;4.93;;;19.90;99.90;;;20.58;72.06;100849.09;5040592;28;20585;-84
2023/08/16 04:18:44;;;;;;;11.15;5.80;;;19.90;99.90;;;20.58;71.88;100854.50;5011317;28;20037;-84
2023/08/16 04:21:13;;;;;;;10.52;6.30;;;19.90;99.90;;;20.57;72.01;100850.19;5033434;28;20065;-83
2023/08/16 04:23:42;;;;;;;12.23;6.43;;;20.00;99.90;;;20.58;71.75;100854.50;5044001;28;20028;-84
2023/08/16 04:26:09;;;;;;;9.77;5.45;;;20.00;99.90;;;20.58;72.34;100857.22;5030136;28;20102;-83
2023/08/16 04:28:36;;;;;;;11.63;6.57;;;19.90;99.90;;;20.57;72.49;100858.31;5025359;28;20038;-84
2023/08/16 04:31:04;;;;;;;8.15;5.55;;;20.00;99.90;;;20.56;72.36;100864.81;5040142;28;20490;-83
2023/08/16 04:33:31;;;;;;;13.27;7.00;;;20.00;99.90;;;20.58;72.39;100859.94;5039690;28;20042;-84
2023/08/16 04:35:59;;;;;;;14.32;7.43;;;20.00;99.90;;;20.58;72.27;100864.53;5033464;28;20041;-86
2023/08/16 04:38:27;;;;;;;11.88;6.50;;;20.00;99.90;;;20.60;72.37;100862.38;5030608;28;20070;-85
2023/08/16 04:40:55;;;;;;;11.88;6.95;;;20.00;99.90;;;20.56;72.48;100864.00;5039401;28;20033;-86
2023/08/16 04:43:22;;;;;;;13.70;6.03;;;20.00;99.90;;;20.52;72.77;100874.56;5015298;28;20053;-86
2023/08/16 04:45:50;;;;;;;8.60;5.00;;;20.00;99.90;;;20.54;73.06;100877.78;5042892;28;20045;-85
2023/08/16 04:48:17;;;;;;;8.30;5.70;;;20.00;99.90;;;20.51;73.48;100891.91;5034582;28;20653;-86
2023/08/16 04:50:45;;;;;;;10.48;5.40;;;19.90;99.90;;;20.45;73.69;100909.19;5010898;28;20036;-85
2023/08/16 04:53:13;;;;;;;9.27;6.07;;;19.90;99.90;;;20.43;73.97;100911.34;5035000;28;20456;-86
2023/08/16 04:55:44;;;;;;;16.45;6.43;;;19.90;99.90;;;20.46;74.18;100905.41;5039454;28;20398;-86
2023/08/16 04:58:11;;;;;;;12.40;5.65;;;19.90;99.90;;;20.47;74.13;100907.06;5029625;28;20115;-87
2023/08/16 05:00:45;;;;;;;8.48;6.05;;;19.90;99.90;;;20.53;74.16;100918.72;5015683;28;20038;-86
2023/08/16 05:03:13;;;;;;;12.07;6.47;;;20.00;99.90;;;20.53;74.11;100930.38;5016805;28;20057;-86
2023/08/16 05:05:40;;;;;;;9.82;6.38;;;20.00;99.90;;;20.56;74.07;100942.59;5018457;28;20044;-85
2023/08/16 05:08:09;;;;;;;16.05;7.10;;;20.00;99.90;;;20.55;74.25;100940.97;5013888;28;20033;-86
2023/08/16 05:10:37;;;;;;;8.55;6.70;;;20.00;99.90;;;20.55;73.99;100935.56;5030058;28;20072;-86
2023/08/16 05:13:05;;;;;;;13.50;6.93;;;20.10;99.90;;;20.57;74.52;100931.47;5035244;28;20045;-86
2023/08/16 05:15:33;;;;;;;19.98;8.65;;;20.00;99.90;;;20.56;75.39;100927.16;5051987;22;20129;-85
2023/08/16 05:18:00;;;;;;;16.02;9.07;;;20.00;99.90;;;20.56;75.08;100929.84;5014718;28;20053;-85
2023/08/16 05:20:28;;;;;;;18.25;8.85;;;20.10;99.90;;;20.57;75.89;100933.38;5015931;28;20141;-84
2023/08/16 05:22:55;;;;;;;17.42;8.82;;;20.00;99.90;;;20.54;76.22;100942.84;5015416;28;20077;-84
2023/08/16 05:25:23;;;;;;;16.10;9.02;;;20.00;99.90;;;20.53;76.11;100940.41;5021138;28;20034;-84
2023/08/16 05:27:50;;;;;;;17.58;8.70;;;20.00;99.90;;;20.53;76.31;100949.34;5012115;28;20081;-84
2023/08/16 05:30:18;;;;;;;18.52;9.00;;;20.00;99.90;;;20.52;76.44;100953.16;5012607;28;20046;-83
2023/08/16 05:32:46;;;;;;;13.75;8.18;;;20.00;99.90;;;20.49;76.95;100950.94;5014475;28;20034;-84
2023/08/16 05:35:13;;;;;;;16.73;8.80;;;19.90;99.90;;;20.48;77.38;100941.19;5020811;28;20076;-84
2023/08/16 05:37:40;;;;;;;13.25;8.32;;;19.90;99.90;;;20.48;77.33;100945.81;5016095;28;20049;-84
2023/08/16 05:40:09;;;;;;;13.68;8.38;;;20.00;99.90;;;20.47;77.45;100936.88;5033203;28;20503;-84
2023/08/16 05:42:37;;;;;;;13.15;8.52;;;19.90;99.90;;;20.48;77.20;100941.19;5012929;28;20052;-84
2023/08/16 05:45:05;;;;;;;17.13;8.57;;;20.00;99.90;;;20.48;77.92;100940.38;5009994;28;20707;-84
2023/08/16 05:47:33;;;;;;;12.15;8.93;;;20.00;99.90;;;20.50;77.60;100940.97;5020836;28;20546;-84
2023/08/16 05:50:02;;;;;;;13.07;8.32;;;19.90;99.90;;;20.50;77.33;100941.75;5010329;28;20134;-85
2023/08/16 05:52:30;;;;;;;13.20;8.80;;;19.90;99.90;;;20.51;77.72;100942.59;5033296;28;20053;-83
2023/08/16 05:54:57;;;;;;;14.82;9.32;;;20.00;99.90;;;20.50;77.26;100947.19;5013538;28;20404;-84
2023/08/16 05:57:24;;;;;;;16.55;8.73;;;20.00;99.90;;;20.48;77.19;100940.38;5012937;28;20110;-84
2023/08/16 05:59:52;;;;;;;15.23;8.25;;;20.00;99.90;;;20.48;76.99;100935.78;5027517;28;20062;-83
2023/08/16 06:02:22;;;;;;;11.65;7.82;;;20.00;99.90;;;20.37;77.19;100931.38;5020349;28;20157;-83
2023/08/16 06:04:52;;;;;;;25.30;9.38;;;19.90;99.90;;;20.28;77.07;100938.38;5008584;28;20061;-82
2023/08/16 06:07:21;;;;;;;14.35;7.95;;;19.80;99.90;;;20.23;77.90;100935.66;5016775;28;20052;-82
2023/08/16 06:09:50;;;;;;;14.65;8.90;;;19.80;99.90;;;20.23;78.22;100928.34;5017452;28;20045;-82
2023/08/16 06:12:17;;;;;;;13.88;8.07;;;19.80;99.90;;;20.28;78.64;100927.53;5031437;28;20087;-82
2023/08/16 06:14:45;;;;;;;16.13;8.18;;;19.90;99.90;;;20.36;78.59;100920.81;5011079;28;20053;-84
2023/08/16 06:17:12;;;;;;;15.32;8.18;;;20.00;99.90;;;20.36;78.30;100921.63;5013455;28;20038;-84
2023/08/16 06:19:39;;;;;;;15.20;8.32;;;19.90;99.90;;;20.40;78.26;100925.44;5013500;28;20723;-84
2023/08/16 06:22:08;;;;;;;12.80;8.73;;;20.00;99.90;;;20.41;79.01;100929.78;5021114;28;20073;-82
2023/08/16 06:24:37;;;;;;;13.80;8.25;;;20.00;99.90;;;20.51;78.89;100929.03;5012652;28;20068;-81
2023/08/16 06:27:04;;;;;;;15.65;9.52;;;20.20;99.90;;;20.59;78.55;100933.91;5013690;28;20129;-82
2023/08/16 06:29:31;;;;;;;13.57;9.35;;;20.30;99.90;;;20.59;78.49;100936.63;5012829;28;20120;-81
2023/08/16 06:31:59;;;;;;;17.85;10.27;;;20.30;99.90;;;20.56;78.53;100938.00;5020436;28;20049;-81
2023/08/16 06:34:26;;;;;;;15.68;10.02;;;20.30;99.90;;;20.62;79.05;100940.72;5017708;28;20128;-83
2023/08/16 06:36:53;;;;;;;13.32;9.90;;;20.30;99.90;;;20.56;78.66;100940.69;5013977;28;20045;-83
2023/08/16 06:39:23;;;;;;;19.15;10.70;;;20.30;99.90;;;20.63;78.96;100945.03;5022857;28;20133;-82
2023/08/16 06:41:50;;;;;;;17.58;9.50;;;20.30;99.90;;;20.54;79.37;100942.84;5016259;28;20060;-82
2023/08/16 06:44:18;;;;;;;17.20;10.02;;;20.30;99.90;;;20.58;79.83;100943.13;5025187;28;20535;-81
2023/08/16 06:46:45;;;;;;;14.10;10.63;;;20.40;99.90;;;20.65;80.04;100942.91;5030480;28;20124;-81
2023/08/16 06:49:12;;;;;;;14.88;10.27;;;20.40;99.90;;;20.70;80.32;100942.91;5014242;28;20042;-83
2023/08/16 06:51:39;;;;;;;15.38;11.20;;;20.50;99.90;;;20.77;79.38;100949.69;5014954;28;20127;-82
2023/08/16 06:54:08;;;;;;;15.77;11.25;;;20.60;99.90;;;20.77;79.85;100951.59;5015687;28;20034;-82
2023/08/16 06:56:36;;;;;;;15.85;10.77;;;20.60;99.90;;;20.84;80.20;100949.47;5014728;28;20145;-83
2023/08/16 06:59:04;;;;;;;14.70;11.02;;;20.70;99.90;;;20.80;79.53;100949.16;5012935;28;20045;-82
2023/08/16 07:01:32;;;;;;;13.15;10.07;;;20.60;99.90;;;20.79;79.44;100952.97;5022986;28;20041;-82
2023/08/16 07:03:59;;;;;;;17.42;11.32;;;20.60;99.90;;;20.82;79.63;100951.59;4997923;28;20030;-82
2023/08/16 07:06:26;;;;;;;16.27;10.63;;;20.60;99.90;;;20.94;79.87;100949.47;5014453;28;20145;-82
2023/08/16 07:08:54;;;;;;;14.60;10.52;;;20.80;99.90;;;21.03;78.97;100956.00;5017043;28;20042;-82
2023/08/16 07:11:21;;;;;;;13.68;10.20;;;20.90;99.90;;;20.97;78.67;100965.19;5031941;28;20069;-82
2023/08/16 07:13:50;;;;;;;13.85;10.05;;;20.80;99.90;;;20.94;79.69;100967.66;5019400;28;20520;-82
2023/08/16 07:16:18;;;;;;;15.23;10.13;;;20.80;99.90;;;20.85;79.19;100964.63;5016983;28;20034;-82
2023/08/16 07:18:45;;;;;;;16.80;10.30;;;20.70;99.90;;;20.76;79.76;100963.53;4999798;28;20108;-82
2023/08/16 07:21:12;;;;;;;17.15;9.73;;;20.50;99.90;;;20.80;80.53;100967.34;5020787;28;20453;-82
2023/08/16 07:23:40;;;;;;;13.90;9.85;;;20.60;99.90;;;20.79;79.69;100963.81;5019169;28;20052;-82
2023/08/16 07:26:07;;;;;;;12.07;9.35;;;20.60;99.90;;;20.79;79.81;100976.56;5013413;28;20128;-82
2023/08/16 07:28:34;;;;;;;13.52;9.30;;;20.60;99.90;;;20.87;80.24;100972.50;5033692;28;20072;-82
2023/08/16 07:31:03;;;;;;;14.00;9.77;;;20.70;99.90;;;20.84;79.75;100973.88;5035543;28;20045;-82
2023/08/16 07:33:30;;;;;;;12.48;9.40;;;20.70;99.90;;;20.80;80.39;100968.16;5018054;28;20046;-82
2023/08/16 07:36:01;;;;;;;13.95;10.02;;;20.70;99.90;;;20.78;81.08;100972.19;5013861;28;20092;-82
2023/08/16 07:38:29;;;;;;;15.70;10.60;;;20.60;99.90;;;20.79;82.07;100973.84;5011234;28;20056;-82
2023/08/16 07:40:56;;;;;;;15.77;9.82;;;20.70;99.90;;;20.87;82.01;100973.31;5014739;28;20438;-82
2023/08/16 07:43:24;;;;;;;16.83;10.20;;;20.80;99.90;;;20.88;81.58;100972.22;5015361;28;20561;-83
2023/08/16 07:45:53;;;;;;;16.02;10.20;;;20.80;99.90;;;20.92;81.29;100973.31;5019542;28;20407;-82
2023/08/16 07:48:22;;;;;;;18.88;11.45;;;20.80;99.90;;;20.89;79.43;100970.34;5033744;28;20149;-82
2023/08/16 07:50:50;;;;;;;18.33;11.82;;;20.80;99.90;;;20.89;80.02;100964.94;5013809;28;20042;-82
2023/08/16 07:53:18;;;;;;;14.88;11.18;;;20.80;99.90;;;20.91;80.47;100977.13;5013709;28;20402;-81
2023/08/16 07:55:45;;;;;;;17.90;12.15;;;20.80;99.90;;;20.86;79.35;100968.16;5014123;28;20132;-81
2023/08/16 07:58:15;;;;;;;17.27;11.73;;;20.80;99.90;;;20.85;79.41;100975.50;5030542;28;20120;-82
2023/08/16 08:00:42;;;;;;;21.13;12.15;;;20.80;99.90;;;20.91;80.07;100982.53;5022876;28;20037;-81
2023/08/16 08:03:10;;;;;;;17.92;11.80;;;20.80;99.90;;;20.93;80.22;100984.97;5012976;28;20061;-81
2023/08/16 08:05:38;;;;;;;18.88;11.38;;;20.80;99.90;;;20.98;80.36;100985.00;5020070;28;20048;-81
2023/08/16 08:08:08;;;;;;;20.48;12.73;;;20.90;99.90;;;20.98;79.33;100987.69;5015944;28;20041;-82
2023/08/16 08:10:35;;;;;;;16.73;11.82;;;20.90;99.90;;;21.00;79.41;100988.25;5015456;28;20478;-81
2023/08/16 08:13:03;;;;;;;17.13;11.40;;;20.90;99.90;;;20.97;79.72;100986.88;5020948;28;20074;-82
2023/08/16 08:15:31;;;;;;;13.88;10.68;;;20.90;99.90;;;20.98;79.21;100980.38;5012131;28;21585;-81
2023/08/16 08:17:58;;;;;;;15.63;10.02;;;20.90;99.90;;;21.01;79.04;100987.19;5006507;28;20065;-82
2023/08/16 08:20:25;;;;;;;16.15;9.77;;;20.90;99.90;;;21.02;79.04;100989.59;5018660;28;20096;-81
2023/08/16 08:22:54;;;;;;;16.95;10.30;;;20.90;99.90;;;21.02;79.27;100994.22;5022699;28;20116;-81
2023/08/16 08:25:21;;;;;;;11.18;8.13;;;20.90;99.90;;;20.95;78.26;100994.50;5008771;28;20137;-81
2023/08/16 08:27:48;;;;;;;10.65;7.13;;;20.80;99.90;;;20.89;77.55;100995.56;5023205;28;20120;-81
2023/08/16 08:30:18;;;;;;;12.80;7.07;;;20.80;99.90;;;20.87;77.36;100992.28;5013696;28;20128;-82
2023/08/16 08:32:45;;;;;;;9.95;6.43;;;20.70;99.90;;;20.83;77.57;100991.19;5014627;28;20042;-82
2023/08/16 08:35:12;;;;;;;12.63;6.80;;;20.70;99.90;;;20.93;78.44;100995.81;5018194;28;20076;-81
2023/08/16 08:37:40;;;;;;;9.35;6.43;;;20.80;99.90;;;20.99;77.90;101006.44;5012631;28;21806;-81
2023/08/16 08:40:09;;;;;;;13.35;7.07;;;20.90;99.90;;;21.07;77.17;101002.38;5020508;28;20046;-81
2023/08/16 08:42:38;;;;;;;11.07;6.00;;;21.00;99.90;;;21.14;76.86;101005.66;5021923;28;20049;-81
2023/08/16 08:45:07;;;;;;;14.13;6.30;;;21.10;99.90;;;21.19;76.15;101002.13;5011109;28;20070;-81
2023/08/16 08:47:38;;;;;;;11.30;7.00;;;21.20;99.90;;;21.23;76.18;101011.38;5012512;28;20053;-81
2023/08/16 08:50:07;;;;;;;11.13;6.97;;;21.20;99.90;;;21.23;76.00;101012.19;5037777;28;20486;-81
2023/08/16 08:52:34;;;;;;;13.20;8.13;;;21.30;99.90;;;21.31;77.08;101013.56;5022620;28;20041;-81
2023/08/16 08:55:03;;;;;;;15.68;8.27;;;21.30;99.90;;;21.33;75.19;101006.00;5013691;28;20049;-81
2023/08/16 08:57:34;;;;;;;12.05;8.23;;;21.40;99.90;;;21.38;75.46;101002.47;5015162;28;20852;-81
2023/08/16 09:00:04;;;;;;;14.43;9.90;;;21.40;99.90;;;21.43;76.10;101008.72;5033518;28;20076;-81
2023/08/16 09:02:33;;;;;;;15.00;9.38;;;21.40;99.90;;;21.34;74.24;101015.75;5025200;28;20049;-81
2023/08/16 09:05:04;;;;;;;13.40;9.18;;;21.40;99.90;;;21.19;73.10;101016.50;5022501;28;20461;-81
2023/08/16 09:07:34;;;;;;;16.05;9.88;;;21.20;99.90;;;21.19;74.31;101021.13;5021377;28;20089;-81
2023/08/16 09:10:01;;;;;;;18.13;9.63;;;21.20;99.90;;;21.21;74.55;101024.38;5018331;28;20081;-81
2023/08/16 09:12:45;;;;;;;13.98;9.25;;;21.20;99.90;;;21.23;74.62;101027.66;5011623;28;20746;-81
2023/08/16 09:15:13;;;;;;;15.90;8.45;;;21.20;99.90;;;21.15;74.45;101020.03;5011612;28;20458;-81
2023/08/16 09:17:40;;;;;;;12.35;8.88;;;21.10;99.90;;;21.17;74.02;101015.13;5015806;28;20046;-81
2023/08/16 09:20:08;;;;;;;15.32;8.65;;;21.10;99.90;;;21.23;74.36;101008.66;5032117;28;20077;-81
2023/08/16 09:22:38;;;;;;;15.02;7.85;;;21.20;99.90;;;21.12;72.59;101013.22;5023164;28;20049;-82
2023/08/16 09:25:10;;;;;;;12.60;8.07;;;21.10;99.90;;;21.13;73.57;101000.47;5012403;28;20044;-82
2023/08/16 09:27:40;;;;;;;13.32;7.75;;;21.20;99.90;;;21.16;74.76;101003.47;5013655;28;20070;-82
2023/08/16 09:30:14;;;;;;;10.35;7.45;;;21.20;99.90;;;21.26;74.77;101005.38;5027106;28;20049;-83
2023/08/16 09:32:41;;;;;;;13.88;8.02;;;21.30;99.90;;;21.35;74.82;101014.66;5021060;28;20130;-83
2023/08/16 09:35:13;;;;;;;13.40;7.47;;;21.40;99.90;;;21.41;74.04;101007.34;5015535;28;20041;-81
2023/08/16 09:37:43;;;;;;;12.98;7.05;;;21.40;99.90;;;21.44;73.73;101010.34;5023494;28;20045;-81
2023/08/16 09:40:12;;;;;;;13.13;8.38;;;21.40;99.90;;;21.42;73.06;101012.50;5012016;28;20052;-82
2023/08/16 09:42:40;;;;;;;16.25;8.77;;;21.40;99.90;;;21.30;73.07;101012.75;5024316;28;20065;-82
2023/08/16 09:45:09;;;;;;;16.02;10.15;;;21.30;99.90;;;21.26;73.91;101008.91;5012249;28;21490;-82
2023/08/16 09:47:43;;;;;;;24.50;14.63;;;21.30;99.90;;;21.21;72.49;101025.19;5020813;28;20049;-82
2023/08/16 09:50:12;;;;;;;20.00;12.73;;;21.30;99.90;;;21.21;73.99;101024.38;5011428;28;20145;-83
2023/08/16 09:52:42;;;;;;;22.67;12.63;;;21.30;99.90;;;21.20;73.50;101022.75;5031156;28;20084;-82
2023/08/16 09:55:10;;;;;;;19.85;12.18;;;21.20;99.90;;;21.23;73.88;101014.09;4996528;28;20046;-81
2023/08/16 09:57:38;;;;;;;19.67;12.25;;;21.20;99.90;;;21.26;73.65;101010.81;5019566;28;20045;-82
2023/08/16 10:00:08;;;;;;;18.45;11.85;;;21.30;99.90;;;21.31;73.29;101008.94;5011662;28;20096;-82
2023/08/16 10:02:43;;;;;;;20.95;12.18;;;21.30;99.90;;;21.39;73.60;101009.53;5022903;28;20136;-81
2023/08/16 10:05:10;;;;;;;19.70;12.25;;;21.40;99.90;;;21.38;73.26;101014.13;5031490;28;20073;-82
2023/08/16 10:07:39;;;;;;;19.33;13.00;;;21.40;99.90;;;21.31;73.76;101003.53;5014546;28;20049;-82
2023/08/16 10:10:09;;;;;;;22.48;13.02;;;21.30;99.90;;;21.38;74.24;101008.72;5021197;28;20041;-82